Time;durP1;ratioP1;P1;durP2;ratioP2;P2;SDS_P1;SDS_P2;PMS_P1;PMS_P2;Temp;Humidity;BMP_temperature;BMP_pressure;BME280_temperature;BME280_humidity;BME280_pressure;Samples;Min_cycle;Max_cycle;Signal;HPM_P1;HPM_P2
2023/02/07 00:01:27;;;;;;;;;;;-3.00;99.90;;;;;;5045908;28;19931;-72
2023/02/07 00:03:59;;;;;;;;;;;-3.00;99.90;;;;;;5045775;28;19925;-72
2023/02/07 00:06:27;;;;;;;;;;;-3.00;99.90;;;;;;5043895;28;19925;-71
2023/02/07 00:09:00;;;;;;;;;;;-3.10;99.90;;;;;;5047582;28;19935;-73
2023/02/07 00:11:26;;;;;;;;;;;-3.10;99.90;;;;;;5048992;28;19925;-72
2023/02/07 00:13:58;;;;;;;;;;;-3.20;99.90;;;;;;5048619;28;19932;-71
2023/02/07 00:16:26;;;;;;;;;;;-3.20;99.90;;;;;;5045210;28;20410;-73
2023/02/07 00:18:55;;;;;;;;;;;-3.20;99.90;;;;;;5030713;28;19935;-72
2023/02/07 00:21:25;;;;;;;;;;;-3.20;99.90;;;;;;5049484;28;19931;-72
2023/02/07 00:23:54;;;;;;;;;;;-3.20;99.90;;;;;;5038657;28;19961;-71
2023/02/07 00:26:23;;;;;;;;;;;-3.20;99.90;;;;;;5046839;28;19974;-71
2023/02/07 00:28:57;;;;;;;;;;;-3.30;99.90;;;;;;5037009;28;19929;-73
2023/02/07 00:31:32;;;;;;;;;;;-3.30;99.90;;;;;;5032110;28;19932;-71
2023/02/07 00:34:42;;;;;;;;;;;-3.40;99.90;;;;;;5039909;28;19975;-71
2023/02/07 00:37:19;;;;;;;;;;;-3.40;99.90;;;;;;5049246;28;19928;-72
2023/02/07 00:40:17;;;;;;;;;;;-3.40;99.90;;;;;;5041434;28;20083;-71
2023/02/07 00:43:06;;;;;;;;;;;-3.50;99.90;;;;;;5047273;28;19948;-70
2023/02/07 00:45:35;;;;;;;;;;;-3.50;99.90;;;;;;5042367;28;19925;-72
2023/02/07 00:48:07;;;;;;;;;;;-3.50;99.90;;;;;;5033671;28;19995;-71
2023/02/07 00:50:41;;;;;;;;;;;-3.50;99.90;;;;;;5022053;28;19932;-71
2023/02/07 00:53:12;;;;;;;;;;;-3.50;99.90;;;;;;5022568;28;19925;-71
2023/02/07 00:55:43;;;;;;;;;;;-3.50;99.90;;;;;;5045089;28;19972;-71
2023/02/07 00:58:21;;;;;;;;;;;-3.50;99.90;;;;;;5031640;28;19970;-72
2023/02/07 01:00:56;;;;;;;;;;;-3.50;99.90;;;;;;5039616;28;19925;-72
2023/02/07 01:03:29;;;;;;;;;;;-3.50;99.90;;;;;;5044594;28;19929;-71
2023/02/07 01:06:01;;;;;;;;;;;-3.50;99.90;;;;;;5024452;28;19936;-72
2023/02/07 01:08:28;;;;;;;;;;;-3.50;99.90;;;;;;5044671;28;19932;-72
2023/02/07 01:11:09;;;;;;;;;;;-3.50;99.90;;;;;;5038033;28;19928;-72
2023/02/07 01:13:45;;;;;;;;;;;-3.60;99.90;;;;;;5035502;28;19979;-72
2023/02/07 01:16:27;;;;;;;;;;;-3.60;99.90;;;;;;5022956;28;19929;-72
2023/02/07 01:19:00;;;;;;;;;;;-3.70;99.90;;;;;;5046115;28;19932;-72
2023/02/07 01:21:32;;;;;;;;;;;-3.70;99.90;;;;;;5041865;28;20299;-72
2023/02/07 01:24:06;;;;;;;;;;;-3.80;99.90;;;;;;5042793;28;19979;-72
2023/02/07 01:26:57;;;;;;;;;;;-3.90;99.90;;;;;;5037063;28;20329;-71
2023/02/07 01:30:08;;;;;;;;;;;-3.90;99.90;;;;;;5024358;28;20022;-72
2023/02/07 01:33:02;;;;;;;;;;;-3.90;99.90;;;;;;5047030;28;20384;-72
2023/02/07 01:36:15;;;;;;;;;;;-3.90;99.90;;;;;;5046726;28;20394;-72
2023/02/07 01:38:52;;;;;;;;;;;-3.80;99.90;;;;;;5034784;28;20024;-72
2023/02/07 01:41:45;;;;;;;;;;;-3.80;99.90;;;;;;5046869;28;20421;-72
2023/02/07 01:44:38;;;;;;;;;;;-3.70;99.90;;;;;;5044518;28;19931;-72
2023/02/07 01:47:26;;;;;;;;;;;-3.80;99.90;;;;;;5038038;28;19932;-72
2023/02/07 01:50:03;;;;;;;;;;;-3.90;99.90;;;;;;5051811;28;20357;-72
2023/02/07 01:52:37;;;;;;;;;;;-4.00;99.90;;;;;;5046240;28;19964;-72
2023/02/07 01:55:31;;;;;;;;;;;-4.00;99.90;;;;;;5041969;28;20382;-72
2023/02/07 01:58:04;;;;;;;;;;;-4.10;99.90;;;;;;5055677;28;19932;-72
2023/02/07 02:00:47;;;;;;;;;;;-4.10;99.90;;;;;;5042106;28;19925;-72
2023/02/07 02:03:18;;;;;;;;;;;-4.10;99.90;;;;;;5036435;28;20381;-72
2023/02/07 02:05:53;;;;;;;;;;;-4.10;99.90;;;;;;5034788;28;19979;-71
2023/02/07 02:08:25;;;;;;;;;;;-4.00;99.90;;;;;;5026923;28;20023;-72
2023/02/07 02:11:02;;;;;;;;;;;-4.10;99.90;;;;;;5028511;28;19987;-72
2023/02/07 02:13:35;;;;;;;;;;;-4.10;99.90;;;;;;5062119;28;19944;-72
2023/02/07 02:16:24;;;;;;;;;;;-4.20;99.90;;;;;;5046369;28;19956;-72
2023/02/07 02:19:05;;;;;;;;;;;-4.20;99.90;;;;;;5052101;28;19951;-72
2023/02/07 02:21:38;;;;;;;;;;;-4.20;99.90;;;;;;5037058;28;19925;-72
2023/02/07 02:24:25;;;;;;;;;;;-4.30;99.90;;;;;;5043379;28;20215;-72
2023/02/07 02:27:16;;;;;;;;;;;-4.30;99.90;;;;;;5055526;28;19929;-72
2023/02/07 02:29:49;;;;;;;;;;;-4.30;99.90;;;;;;5062415;28;20023;-72
2023/02/07 02:32:48;;;;;;;;;;;-4.30;99.90;;;;;;5051811;28;19929;-72
2023/02/07 02:35:30;;;;;;;;;;;-4.40;99.90;;;;;;5054806;28;19932;-72
2023/02/07 02:38:51;;;;;;;;;;;-4.40;99.90;;;;;;5044117;28;19925;-72
2023/02/07 02:41:26;;;;;;;;;;;-4.50;99.90;;;;;;5045368;28;20366;-72
2023/02/07 02:44:13;;;;;;;;;;;-4.40;99.90;;;;;;5042374;28;19975;-72
2023/02/07 02:46:54;;;;;;;;;;;-4.40;99.90;;;;;;5047424;28;19974;-72
2023/02/07 02:49:25;;;;;;;;;;;-4.50;99.90;;;;;;5036722;28;19925;-72
2023/02/07 02:51:59;;;;;;;;;;;-4.50;99.90;;;;;;5044905;28;19931;-72
2023/02/07 02:54:32;;;;;;;;;;;-4.50;99.90;;;;;;5039352;28;19929;-72
2023/02/07 02:57:23;;;;;;;;;;;-4.60;99.90;;;;;;5047243;28;19925;-72
2023/02/07 03:00:11;;;;;;;;;;;-4.60;99.90;;;;;;5055013;28;19929;-72
2023/02/07 03:02:51;;;;;;;;;;;-4.70;99.90;;;;;;5048098;28;19932;-72
2023/02/07 03:05:28;;;;;;;;;;;-4.60;99.90;;;;;;5044831;28;19925;-72
2023/02/07 03:08:15;;;;;;;;;;;-4.60;99.90;;;;;;5048152;28;19933;-71
2023/02/07 03:11:03;;;;;;;;;;;-4.50;99.90;;;;;;5036894;28;19925;-72
2023/02/07 03:13:49;;;;;;;;;;;-4.50;99.90;;;;;;5037425;28;19935;-72
2023/02/07 03:17:05;;;;;;;;;;;-4.50;99.90;;;;;;5040703;28;19991;-72
2023/02/07 03:19:43;;;;;;;;;;;-4.50;99.90;;;;;;5021444;28;19925;-72
2023/02/07 03:22:16;;;;;;;;;;;-4.50;99.90;;;;;;5047936;28;20353;-72
2023/02/07 03:24:54;;;;;;;;;;;-4.50;99.90;;;;;;5034295;28;19925;-72
2023/02/07 03:27:27;;;;;;;;;;;-4.50;99.90;;;;;;5043826;28;20338;-72
2023/02/07 03:30:06;;;;;;;;;;;-4.60;99.90;;;;;;5038413;28;19925;-72
2023/02/07 03:32:37;;;;;;;;;;;-4.60;99.90;;;;;;5040547;28;19933;-72
2023/02/07 03:35:13;;;;;;;;;;;-4.70;99.90;;;;;;5038738;28;20979;-72
2023/02/07 03:37:45;;;;;;;;;;;-4.70;99.90;;;;;;5040394;28;19932;-72
2023/02/07 03:40:18;;;;;;;;;;;-4.80;99.90;;;;;;5038998;28;19926;-72
2023/02/07 03:42:53;;;;;;;;;;;-4.80;99.90;;;;;;5026432;28;19936;-72
2023/02/07 03:45:24;;;;;;;;;;;-4.80;99.90;;;;;;5044516;28;19936;-72
2023/02/07 03:47:54;;;;;;;;;;;-4.70;99.90;;;;;;5034185;28;19932;-72
2023/02/07 03:50:25;;;;;;;;;;;-4.70;99.90;;;;;;5035716;28;20410;-72
2023/02/07 03:52:59;;;;;;;;;;;-4.80;99.90;;;;;;5045742;28;20402;-72
2023/02/07 03:55:30;;;;;;;;;;;-4.80;99.90;;;;;;5029732;28;19963;-72
2023/02/07 03:58:02;;;;;;;;;;;-4.80;99.90;;;;;;5035224;28;20719;-71
2023/02/07 04:00:33;;;;;;;;;;;-4.70;99.90;;;;;;5043333;28;19994;-72
2023/02/07 04:03:06;;;;;;;;;;;-4.70;99.90;;;;;;5040150;28;19929;-72
2023/02/07 04:09:10;;;;;;;;;;;-4.50;99.90;;;;;;5035530;28;19929;-72
2023/02/07 04:12:31;;;;;;;;;;;-4.50;99.90;;;;;;5043318;28;20430;-72
2023/02/07 04:15:04;;;;;;;;;;;-4.60;99.90;;;;;;5030157;28;19931;-72
2023/02/07 04:17:39;;;;;;;;;;;-4.60;99.90;;;;;;5048117;28;19931;-72
2023/02/07 04:20:08;;;;;;;;;;;-4.60;99.90;;;;;;5049389;28;19925;-72
2023/02/07 04:22:57;;;;;;;;;;;-4.50;99.90;;;;;;5034153;28;19933;-72
2023/02/07 04:25:43;;;;;;;;;;;-4.50;99.90;;;;;;5063710;28;20005;-72
2023/02/07 04:29:25;;;;;;;;;;;-4.60;99.90;;;;;;5043835;28;19919;-71
2023/02/07 04:32:02;;;;;;;;;;;-4.70;99.90;;;;;;5038239;28;20039;-72
2023/02/07 04:34:35;;;;;;;;;;;-4.80;99.90;;;;;;5034691;28;19925;-72
2023/02/07 04:37:05;;;;;;;;;;;-4.80;99.90;;;;;;5038942;28;19931;-72
2023/02/07 04:39:35;;;;;;;;;;;-4.90;99.90;;;;;;5056410;28;19952;-72
2023/02/07 04:42:06;;;;;;;;;;;-4.80;99.90;;;;;;5041392;28;19925;-72
2023/02/07 04:44:36;;;;;;;;;;;-4.80;99.90;;;;;;5039467;28;20022;-72
2023/02/07 04:47:10;;;;;;;;;;;-4.60;99.90;;;;;;5038817;28;20015;-72
2023/02/07 04:49:43;;;;;;;;;;;-4.70;99.90;;;;;;5041809;28;20048;-71
2023/02/07 04:52:16;;;;;;;;;;;-4.70;99.90;;;;;;5051715;28;19933;-72
2023/02/07 04:54:46;;;;;;;;;;;-4.80;99.90;;;;;;5046557;28;19931;-72
2023/02/07 04:57:15;;;;;;;;;;;-4.90;99.90;;;;;;5040550;28;19932;-72
2023/02/07 04:59:45;;;;;;;;;;;-5.00;99.90;;;;;;5045264;28;19925;-72
2023/02/07 05:02:13;;;;;;;;;;;-5.00;99.90;;;;;;5043095;28;20288;-73
2023/02/07 05:04:43;;;;;;;;;;;-5.00;99.90;;;;;;5035659;28;20019;-72
2023/02/07 05:07:15;;;;;;;;;;;-5.10;99.90;;;;;;5052015;28;19925;-72
2023/02/07 05:09:46;;;;;;;;;;;-5.10;99.90;;;;;;5047690;28;19975;-72
2023/02/07 05:12:33;;;;;;;;;;;-5.20;99.90;;;;;;5045505;28;20011;-72
2023/02/07 05:18:37;;;;;;;;;;;-5.20;99.90;;;;;;5045974;28;20719;-72
2023/02/07 05:21:10;;;;;;;;;;;-5.20;99.90;;;;;;5061745;28;19925;-73
2023/02/07 05:23:39;;;;;;;;;;;-5.20;99.90;;;;;;5052238;28;20387;-75
2023/02/07 05:26:09;;;;;;;;;;;-5.20;99.90;;;;;;5049669;28;20020;-72
2023/02/07 05:28:41;;;;;;;;;;;-5.20;99.90;;;;;;5035798;28;19929;-72
2023/02/07 05:31:13;;;;;;;;;;;-5.30;99.90;;;;;;5049184;28;19940;-72
2023/02/07 05:33:45;;;;;;;;;;;-5.40;99.90;;;;;;5060351;28;19926;-71
2023/02/07 05:36:16;;;;;;;;;;;-5.50;99.90;;;;;;5049105;28;20284;-72
2023/02/07 05:39:00;;;;;;;;;;;-5.50;99.90;;;;;;5048996;28;19929;-72
2023/02/07 05:41:29;;;;;;;;;;;-5.60;99.90;;;;;;5048740;28;20334;-70
2023/02/07 05:43:58;;;;;;;;;;;-5.60;99.90;;;;;;5050063;28;19924;-72
2023/02/07 05:46:27;;;;;;;;;;;-5.70;99.90;;;;;;5029805;28;19929;-72
2023/02/07 05:48:57;;;;;;;;;;;-5.70;99.90;;;;;;5059705;28;20370;-72
2023/02/07 05:51:30;;;;;;;;;;;-5.60;99.90;;;;;;5040954;28;20433;-72
2023/02/07 05:54:02;;;;;;;;;;;-5.50;99.90;;;;;;5056898;28;19924;-72
2023/02/07 05:56:45;;;;;;;;;;;-5.50;99.90;;;;;;5036620;28;19932;-71
2023/02/07 05:59:56;;;;;;;;;;;-5.40;99.90;;;;;;5047876;28;19921;-72
2023/02/07 06:02:50;;;;;;;;;;;-5.50;99.90;;;;;;5051403;28;19916;-71
2023/02/07 06:05:53;;;;;;;;;;;-5.50;99.90;;;;;;5050077;28;19925;-72
2023/02/07 06:08:33;;;;;;;;;;;-5.50;99.90;;;;;;5048992;28;19948;-71
2023/02/07 06:11:43;;;;;;;;;;;-5.50;99.90;;;;;;5039692;28;19931;-72
2023/02/07 06:14:15;;;;;;;;;;;-5.60;99.90;;;;;;5049971;28;19931;-71
2023/02/07 06:16:45;;;;;;;;;;;-5.50;99.90;;;;;;5045392;28;19924;-72
2023/02/07 06:19:15;;;;;;;;;;;-5.60;99.90;;;;;;5043224;28;19925;-71
2023/02/07 06:21:45;;;;;;;;;;;-5.60;99.90;;;;;;5049344;28;20383;-72
2023/02/07 06:24:21;;;;;;;;;;;-5.70;99.90;;;;;;5040450;28;19925;-71
2023/02/07 06:26:52;;;;;;;;;;;-5.70;99.90;;;;;;5046122;28;19979;-71
2023/02/07 06:29:29;;;;;;;;;;;-5.80;99.90;;;;;;5042757;28;20338;-72
2023/02/07 06:31:57;;;;;;;;;;;-5.80;99.90;;;;;;5034414;28;19925;-72
2023/02/07 06:34:30;;;;;;;;;;;-5.90;99.90;;;;;;5049426;28;19983;-72
2023/02/07 06:37:05;;;;;;;;;;;-5.90;99.90;;;;;;5054151;28;19925;-72
2023/02/07 06:39:35;;;;;;;;;;;-5.90;99.90;;;;;;5047978;28;19929;-72
2023/02/07 06:42:18;;;;;;;;;;;-5.80;99.90;;;;;;5043401;28;20006;-71
2023/02/07 06:44:48;;;;;;;;;;;-5.80;99.90;;;;;;5049782;28;19979;-72
2023/02/07 06:47:31;;;;;;;;;;;-5.70;99.90;;;;;;5046573;28;19925;-72
2023/02/07 06:50:18;;;;;;;;;;;-5.60;99.90;;;;;;5041579;28;19932;-71
2023/02/07 06:52:51;;;;;;;;;;;-5.40;99.90;;;;;;5049414;28;19968;-72
2023/02/07 06:55:38;;;;;;;;;;;-5.20;99.90;;;;;;5050672;28;19924;-72
2023/02/07 06:58:09;;;;;;;;;;;-5.20;99.90;;;;;;5054637;28;19929;-72
2023/02/07 07:00:38;;;;;;;;;;;-5.30;99.90;;;;;;5045363;28;19924;-71
2023/02/07 07:03:11;;;;;;;;;;;-5.40;99.90;;;;;;5034253;28;19928;-71
2023/02/07 07:05:50;;;;;;;;;;;-5.50;99.90;;;;;;5049279;28;20025;-71
2023/02/07 07:08:22;;;;;;;;;;;-5.50;99.90;;;;;;5051864;28;19940;-72
2023/02/07 07:11:37;;;;;;;;;;;-5.50;99.90;;;;;;5043156;28;20409;-70
2023/02/07 07:14:06;;;;;;;;;;;-5.60;99.90;;;;;;5051769;28;19932;-70
2023/02/07 07:16:36;;;;;;;;;;;-5.60;99.90;;;;;;5047812;28;19929;-70
2023/02/07 07:19:06;;;;;;;;;;;-5.70;99.90;;;;;;5045828;28;19925;-71
2023/02/07 07:21:39;;;;;;;;;;;-5.70;99.90;;;;;;5051315;28;19924;-70
2023/02/07 07:24:09;;;;;;;;;;;-5.80;99.90;;;;;;5028045;28;19929;-69
2023/02/07 07:26:41;;;;;;;;;;;-5.80;99.90;;;;;;5050496;28;20014;-70
2023/02/07 07:29:11;;;;;;;;;;;-5.80;99.90;;;;;;5049877;28;19929;-70
2023/02/07 07:31:42;;;;;;;;;;;-5.80;99.90;;;;;;5037557;28;19975;-72
2023/02/07 07:34:17;;;;;;;;;;;-5.80;99.90;;;;;;5032190;28;20401;-70
2023/02/07 07:37:02;;;;;;;;;;;-5.80;99.90;;;;;;5043224;28;19925;-71
2023/02/07 07:39:34;;;;;;;;;;;-5.80;99.90;;;;;;5032422;28;20403;-70
2023/02/07 07:42:14;;;;;;;;;;;-5.80;99.90;;;;;;5051959;28;19967;-70
2023/02/07 07:45:18;;;;;;;;;;;-5.70;99.90;;;;;;5052581;28;19933;-71
2023/02/07 07:47:52;;;;;;;;;;;-5.70;99.90;;;;;;5042993;28;19932;-71
2023/02/07 07:50:33;;;;;;;;;;;-5.70;99.90;;;;;;5048908;28;19939;-71
2023/02/07 07:53:29;;;;;;;;;;;-5.60;99.90;;;;;;5039192;28;19937;-71
2023/02/07 07:56:11;;;;;;;;;;;-5.50;99.90;;;;;;5046381;28;20310;-70
2023/02/07 07:59:06;;;;;;;;;;;-5.50;99.90;;;;;;5057277;28;19924;-70
2023/02/07 08:01:49;;;;;;;;;;;-5.40;99.90;;;;;;5051559;28;19933;-70
2023/02/07 08:04:47;;;;;;;;;;;-5.30;99.90;;;;;;5031935;28;19925;-70
2023/02/07 08:07:24;;;;;;;;;;;-5.20;99.90;;;;;;5046680;28;19932;-70
2023/02/07 08:10:41;;;;;;;;;;;-5.10;99.90;;;;;;5035795;28;19944;-71
2023/02/07 08:13:32;;;;;;;;;;;-5.00;99.90;;;;;;4989047;28;19996;-70
2023/02/07 08:16:11;;;;;;;;;;;-4.80;99.90;;;;;;4985119;28;19925;-71
2023/02/07 08:18:47;;;;;;;;;;;-4.70;99.90;;;;;;4982817;28;19926;-70
2023/02/07 08:21:39;;;;;;;;;;;-4.60;99.90;;;;;;4982586;28;19937;-71
2023/02/07 08:24:41;;;;;;;;;;;-4.50;99.90;;;;;;4998637;28;19936;-71
2023/02/07 08:27:14;;;;;;;;;;;-4.40;99.90;;;;;;4991747;28;20027;-70
2023/02/07 08:29:50;;;;;;;;;;;-4.30;99.90;;;;;;4978486;28;19961;-71
2023/02/07 08:32:28;;;;;;;;;;;-4.20;99.90;;;;;;5037851;28;19929;-70
2023/02/07 08:35:07;;;;;;;;;;;-4.10;99.90;;;;;;5055433;28;19960;-69
2023/02/07 08:37:39;;;;;;;;;;;-4.00;99.90;;;;;;5038386;28;19956;-71
2023/02/07 08:40:09;;;;;;;;;;;-3.90;99.90;;;;;;5044255;28;19925;-70
2023/02/07 08:42:39;;;;;;;;;;;-3.80;99.90;;;;;;5048521;28;19925;-72
2023/02/07 08:45:10;;;;;;;;;;;-3.70;99.90;;;;;;5049114;28;19935;-71
2023/02/07 08:47:44;;;;;;;;;;;-3.60;99.90;;;;;;5063978;28;19932;-70
2023/02/07 08:50:14;;;;;;;;;;;-3.60;99.90;;;;;;5049814;28;20467;-71
2023/02/07 08:52:43;;;;;;;;;;;-3.60;99.90;;;;;;5048592;28;19932;-74
2023/02/07 08:55:16;;;;;;;;;;;-3.50;99.90;;;;;;5039029;28;19964;-70
2023/02/07 08:57:45;;;;;;;;;;;-3.50;99.90;;;;;;5046956;28;19932;-70
2023/02/07 09:00:19;;;;;;;;;;;-3.40;99.90;;;;;;5047346;28;19925;-71
2023/02/07 09:02:48;;;;;;;;;;;-3.30;99.90;;;;;;5028246;28;20012;-71
2023/02/07 09:05:18;;;;;;;;;;;-3.30;99.90;;;;;;5037400;28;19926;-70
2023/02/07 09:07:48;;;;;;;;;;;-3.20;99.90;;;;;;5046836;28;19971;-69
2023/02/07 09:10:20;;;;;;;;;;;-3.10;99.90;;;;;;5044637;28;20386;-70
2023/02/07 09:13:14;;;;;;;;;;;-3.00;99.90;;;;;;5055332;28;19917;-69
2023/02/07 09:15:45;;;;;;;;;;;-2.90;99.90;;;;;;5031302;28;19932;-70
2023/02/07 09:18:22;;;;;;;;;;;-2.90;99.90;;;;;;5050482;28;19951;-70
2023/02/07 09:20:56;;;;;;;;;;;-2.80;99.90;;;;;;5050150;28;19929;-69
2023/02/07 09:26:39;;;;;;;;;;;-2.60;99.90;;;;;;5036686;28;20003;-71
2023/02/07 09:29:13;;;;;;;;;;;-2.60;99.90;;;;;;5038112;28;19925;-70
2023/02/07 09:31:46;;;;;;;;;;;-2.40;99.90;;;;;;5040818;28;19931;-71
2023/02/07 09:34:15;;;;;;;;;;;-2.40;99.90;;;;;;5049781;28;19995;-70
2023/02/07 09:36:49;;;;;;;;;;;-2.30;99.90;;;;;;5048630;28;19931;-70
2023/02/07 09:39:18;;;;;;;;;;;-2.30;99.90;;;;;;5052761;28;19971;-69
2023/02/07 09:42:07;;;;;;;;;;;-2.30;99.90;;;;;;5049909;28;19924;-70
2023/02/07 09:44:48;;;;;;;;;;;-2.30;99.90;;;;;;5048021;28;19924;-70
2023/02/07 09:47:21;;;;;;;;;;;-2.20;99.90;;;;;;5040727;28;19935;-70
2023/02/07 09:49:58;;;;;;;;;;;-2.10;99.90;;;;;;5049240;28;19970;-70
2023/02/07 09:52:41;;;;;;;;;;;-2.10;99.90;;;;;;5039155;28;20032;-70
2023/02/07 09:55:21;;;;;;;;;;;-2.00;99.90;;;;;;5037823;28;19932;-73
2023/02/07 09:58:01;;;;;;;;;;;-1.90;99.90;;;;;;5044045;28;19968;-71
2023/02/07 10:00:33;;;;;;;;;;;-1.80;99.90;;;;;;5047250;28;19963;-71
2023/02/07 10:03:12;;;;;;;;;;;-1.80;99.90;;;;;;5048815;28;19925;-70
2023/02/07 10:05:44;;;;;;;;;;;-1.70;99.90;;;;;;5040741;28;19925;-71
2023/02/07 10:08:18;;;;;;;;;;;-1.70;99.90;;;;;;5053193;28;19957;-71
2023/02/07 10:11:28;;;;;;;;;;;-1.60;99.90;;;;;;5039871;28;19929;-70
2023/02/07 10:14:36;;;;;;;;;;;-1.60;99.90;;;;;;5052981;28;19925;-72
2023/02/07 10:17:38;;;;;;;;;;;-1.70;99.90;;;;;;5034208;28;19940;-70
2023/02/07 10:20:22;;;;;;;;;;;-1.60;99.90;;;;;;4998959;28;19931;-70
2023/02/07 10:23:50;;;;;;;;;;;-1.50;99.90;;;;;;5035139;28;19932;-71
2023/02/07 10:26:49;;;;;;;;;;;-1.40;99.90;;;;;;5047117;28;19935;-70
2023/02/07 10:30:08;;;;;;;;;;;-1.30;99.90;;;;;;5042545;28;20416;-71
2023/02/07 10:32:42;;;;;;;;;;;-1.30;99.90;;;;;;5049843;28;19932;-70
2023/02/07 10:35:35;;;;;;;;;;;-1.30;99.90;;;;;;5049449;28;19925;-70
2023/02/07 10:38:37;;;;;;;;;;;-1.20;99.90;;;;;;5041809;28;20383;-71
2023/02/07 10:41:40;;;;;;;;;;;-1.10;99.90;;;;;;5046695;28;19935;-72
2023/02/07 10:44:19;;;;;;;;;;;-1.10;99.90;;;;;;5041105;28;19925;-71
2023/02/07 10:47:13;;;;;;;;;;;-1.00;99.90;;;;;;5044560;28;20407;-71
2023/02/07 10:50:07;;;;;;;;;;;-1.00;99.90;;;;;;5053176;28;19932;-70
2023/02/07 10:52:43;;;;;;;;;;;-0.90;99.90;;;;;;5054917;28;19951;-71
2023/02/07 10:55:16;;;;;;;;;;;-0.90;99.90;;;;;;5036185;28;19932;-71
2023/02/07 10:57:54;;;;;;;;;;;-0.80;99.90;;;;;;5034475;28;19935;-72
2023/02/07 11:00:27;;;;;;;;;;;-0.80;99.90;;;;;;5032845;28;20019;-71
2023/02/07 11:03:05;;;;;;;;;;;-0.70;99.90;;;;;;5046319;28;19925;-71
2023/02/07 11:05:50;;;;;;;;;;;-0.70;99.90;;;;;;5051972;28;19924;-71
2023/02/07 11:08:25;;;;;;;;;;;-0.60;99.90;;;;;;5041410;28;19926;-71
2023/02/07 11:10:57;;;;;;;;;;;-0.50;99.90;;;;;;5052048;28;19932;-71
2023/02/07 11:13:33;;;;;;;;;;;-0.40;99.90;;;;;;5051328;28;20015;-71
2023/02/07 11:16:23;;;;;;;;;;;-0.20;99.90;;;;;;5038512;28;19925;-72
2023/02/07 11:18:52;;;;;;;;;;;-0.10;99.90;;;;;;5039450;28;19929;-71
2023/02/07 11:21:32;;;;;;;;;;;0.00;99.90;;;;;;5048061;28;19931;-71
2023/02/07 11:24:05;;;;;;;;;;;0.20;99.90;;;;;;5045717;28;19925;-71
2023/02/07 11:26:56;;;;;;;;;;;0.30;99.90;;;;;;5051581;28;19929;-73
2023/02/07 11:29:39;;;;;;;;;;;0.40;99.90;;;;;;5051743;28;20046;-71
2023/02/07 11:32:16;;;;;;;;;;;0.50;99.90;;;;;;5049400;28;19933;-71
2023/02/07 11:38:04;;;;;;;;;;;0.80;99.90;;;;;;5050588;28;20003;-71
2023/02/07 11:40:51;;;;;;;;;;;0.90;99.90;;;;;;5049396;28;19978;-71
2023/02/07 11:43:37;;;;;;;;;;;1.00;99.90;;;;;;5051480;28;20280;-72
2023/02/07 11:46:40;;;;;;;;;;;1.10;99.90;;;;;;5036613;28;19932;-71
2023/02/07 11:49:27;;;;;;;;;;;1.20;99.90;;;;;;5032558;28;19928;-71
2023/02/07 11:52:01;;;;;;;;;;;1.20;99.90;;;;;;5048548;28;19925;-71
2023/02/07 11:54:33;;;;;;;;;;;1.30;99.90;;;;;;5040573;28;19990;-71
2023/02/07 11:57:24;;;;;;;;;;;1.30;99.90;;;;;;5028735;28;19971;-71
2023/02/07 12:00:05;;;;;;;;;;;1.40;99.90;;;;;;5050545;28;19925;-71
2023/02/07 12:02:50;;;;;;;;;;;1.40;99.90;;;;;;5052031;28;19924;-71
2023/02/07 12:05:23;;;;;;;;;;;1.50;99.90;;;;;;5033884;28;19929;-71
2023/02/07 12:08:04;;;;;;;;;;;1.60;99.90;;;;;;5049812;28;19963;-73
2023/02/07 12:10:42;;;;;;;;;;;1.60;99.90;;;;;;5046102;28;20364;-71
2023/02/07 12:13:20;;;;;;;;;;;1.60;99.90;;;;;;5042894;28;20303;-71
2023/02/07 12:15:59;;;;;;;;;;;1.70;99.90;;;;;;5045531;28;20260;-71
2023/02/07 12:18:32;;;;;;;;;;;1.80;99.90;;;;;;5026555;28;19976;-71
2023/02/07 12:21:26;;;;;;;;;;;1.90;99.90;;;;;;5041376;28;19925;-71
2023/02/07 12:24:25;;;;;;;;;;;2.00;99.90;;;;;;4972232;28;19934;-71
2023/02/07 12:27:25;;;;;;;;;;;2.20;99.90;;;;;;5049582;28;19932;-71
2023/02/07 12:30:38;;;;;;;;;;;2.20;99.90;;;;;;5042087;28;19925;-71
2023/02/07 12:33:16;;;;;;;;;;;2.30;99.90;;;;;;5055981;28;20015;-71
2023/02/07 12:36:06;;;;;;;;;;;2.40;99.90;;;;;;5049826;28;19932;-71
2023/02/07 12:38:48;;;;;;;;;;;2.40;99.90;;;;;;5036435;28;19925;-71
2023/02/07 12:41:56;;;;;;;;;;;2.50;99.90;;;;;;5042178;28;19925;-71
2023/02/07 12:44:46;;;;;;;;;;;2.60;99.90;;;;;;5040749;28;19939;-72
2023/02/07 12:47:27;;;;;;;;;;;3.00;99.90;;;;;;5032060;28;19936;-72
2023/02/07 12:50:32;;;;;;;;;;;3.40;99.90;;;;;;5041298;28;19956;-71
2023/02/07 12:53:44;;;;;;;;;;;3.50;99.90;;;;;;5047325;28;19947;-71
2023/02/07 12:57:00;;;;;;;;;;;3.50;99.90;;;;;;5007053;28;19936;-71
2023/02/07 13:00:15;;;;;;;;;;;3.50;99.90;;;;;;5003192;28;19933;-72
2023/02/07 13:03:17;;;;;;;;;;;3.50;99.90;;;;;;5011800;28;20420;-71
2023/02/07 13:05:45;;;;;;;;;;;3.50;99.90;;;;;;5012419;28;19929;-72
2023/02/07 13:08:33;;;;;;;;;;;3.40;99.90;;;;;;5030949;28;20298;-71
2023/02/07 13:11:15;;;;;;;;;;;3.50;99.90;;;;;;5044630;28;19964;-71
2023/02/07 13:13:52;;;;;;;;;;;3.50;99.90;;;;;;5035401;28;19925;-71
2023/02/07 13:17:01;;;;;;;;;;;3.50;99.90;;;;;;5045762;28;19924;-71
2023/02/07 13:19:49;;;;;;;;;;;3.40;99.90;;;;;;5037626;28;19935;-71
2023/02/07 13:22:27;;;;;;;;;;;3.50;99.90;;;;;;5030704;28;20451;-71
2023/02/07 13:25:01;;;;;;;;;;;3.50;99.90;;;;;;5050849;28;20344;-72
2023/02/07 13:27:54;;;;;;;;;;;3.60;99.90;;;;;;5050685;28;20407;-72
2023/02/07 13:30:48;;;;;;;;;;;3.70;99.90;;;;;;5036661;28;20387;-72
2023/02/07 13:33:31;;;;;;;;;;;3.80;99.90;;;;;;5041885;28;19929;-72
2023/02/07 13:36:22;;;;;;;;;;;3.80;99.90;;;;;;5049112;28;19925;-72
2023/02/07 13:39:27;;;;;;;;;;;3.80;99.90;;;;;;5055390;28;19987;-72
2023/02/07 13:42:15;;;;;;;;;;;3.80;99.90;;;;;;5040141;28;19925;-72
2023/02/07 13:44:57;;;;;;;;;;;3.90;99.90;;;;;;5040529;28;20038;-72
2023/02/07 13:47:56;;;;;;;;;;;3.90;99.90;;;;;;5046868;28;19929;-72
2023/02/07 13:51:03;;;;;;;;;;;3.70;99.90;;;;;;5054157;28;19933;-72
2023/02/07 13:54:00;;;;;;;;;;;3.70;99.90;;;;;;5032103;28;19967;-72
2023/02/07 14:00:23;;;;;;;;;;;3.70;99.90;;;;;;5041483;28;20330;-72
2023/02/07 14:02:53;;;;;;;;;;;3.60;99.90;;;;;;5044134;28;19931;-72
2023/02/07 14:05:24;;;;;;;;;;;3.70;99.90;;;;;;5045199;28;21594;-73
2023/02/07 14:07:57;;;;;;;;;;;3.60;99.90;;;;;;5057018;28;20642;-73
2023/02/07 14:10:34;;;;;;;;;;;3.70;99.90;;;;;;5037201;28;19931;-72
2023/02/07 14:13:04;;;;;;;;;;;3.70;99.90;;;;;;5044704;28;20015;-72
2023/02/07 14:15:41;;;;;;;;;;;3.80;99.90;;;;;;5028960;28;19929;-72
2023/02/07 14:18:35;;;;;;;;;;;3.80;99.90;;;;;;5040665;28;19936;-72
2023/02/07 14:21:23;;;;;;;;;;;3.80;99.90;;;;;;5044668;28;19928;-72
2023/02/07 14:24:01;;;;;;;;;;;3.70;99.90;;;;;;5031768;28;20279;-72
2023/02/07 14:26:39;;;;;;;;;;;3.70;99.90;;;;;;5028450;28;19924;-72
2023/02/07 14:29:23;;;;;;;;;;;3.70;99.90;;;;;;5046887;28;20280;-72
2023/02/07 14:32:01;;;;;;;;;;;3.70;99.90;;;;;;5031539;28;19931;-72
2023/02/07 14:34:52;;;;;;;;;;;3.60;99.90;;;;;;5044084;28;19926;-72
2023/02/07 14:37:48;;;;;;;;;;;3.60;99.90;;;;;;5042333;28;19929;-73
2023/02/07 14:40:46;;;;;;;;;;;3.60;99.90;;;;;;5035056;28;19929;-72
2023/02/07 14:43:24;;;;;;;;;;;3.60;99.90;;;;;;5042248;28;19925;-72
2023/02/07 14:46:15;;;;;;;;;;;3.50;99.90;;;;;;5044743;28;20028;-72
2023/02/07 14:48:51;;;;;;;;;;;3.50;99.90;;;;;;5047993;28;19925;-72
2023/02/07 14:51:22;;;;;;;;;;;3.50;99.90;;;;;;5057294;28;19929;-72
2023/02/07 14:54:06;;;;;;;;;;;3.50;99.90;;;;;;5033944;28;19935;-72
2023/02/07 14:56:41;;;;;;;;;;;3.50;99.90;;;;;;5043725;28;20298;-72
2023/02/07 14:59:37;;;;;;;;;;;3.50;99.90;;;;;;5041839;28;19983;-72
2023/02/07 15:02:36;;;;;;;;;;;3.50;99.90;;;;;;5045152;28;19925;-72
2023/02/07 15:05:23;;;;;;;;;;;3.40;99.90;;;;;;5053924;28;19936;-72
2023/02/07 15:08:21;;;;;;;;;;;3.30;99.90;;;;;;5040075;28;21461;-72
2023/02/07 15:11:01;;;;;;;;;;;3.10;99.90;;;;;;5040038;28;19932;-72
2023/02/07 15:13:42;;;;;;;;;;;3.10;99.90;;;;;;5062938;28;19932;-72
2023/02/07 15:16:16;;;;;;;;;;;3.00;99.90;;;;;;5043378;28;19952;-72
2023/02/07 15:19:03;;;;;;;;;;;3.00;99.90;;;;;;5044793;28;19925;-72
2023/02/07 15:21:45;;;;;;;;;;;3.10;99.90;;;;;;5037884;28;19929;-72
2023/02/07 15:24:29;;;;;;;;;;;3.00;99.90;;;;;;5046830;28;20012;-72
2023/02/07 15:27:05;;;;;;;;;;;3.10;99.90;;;;;;5043621;28;19932;-72
2023/02/07 15:29:37;;;;;;;;;;;3.10;99.90;;;;;;5030586;28;19971;-72
2023/02/07 15:32:40;;;;;;;;;;;3.00;99.90;;;;;;5048559;28;19920;-72
2023/02/07 15:35:20;;;;;;;;;;;2.90;99.90;;;;;;5042129;28;19933;-72
2023/02/07 15:38:13;;;;;;;;;;;2.80;99.90;;;;;;5026702;28;20375;-73
2023/02/07 15:40:56;;;;;;;;;;;2.70;99.90;;;;;;5029955;28;20376;-72
2023/02/07 15:43:36;;;;;;;;;;;2.50;99.90;;;;;;5043440;28;19928;-72
2023/02/07 15:46:13;;;;;;;;;;;2.30;99.90;;;;;;5038522;28;19928;-71
2023/02/07 15:48:53;;;;;;;;;;;2.20;99.90;;;;;;5047516;28;19929;-72
2023/02/07 15:51:30;;;;;;;;;;;2.00;99.90;;;;;;5044891;28;19971;-71
2023/02/07 15:54:00;;;;;;;;;;;2.00;99.90;;;;;;5043963;28;19929;-71
2023/02/07 15:56:29;;;;;;;;;;;1.90;99.90;;;;;;5028082;28;19952;-72
2023/02/07 15:59:08;;;;;;;;;;;1.80;99.90;;;;;;5039475;28;20256;-71